sensor_id;sensor_type;location;lat;lon;timestamp;P1;durP1;ratioP1;P2;durP2;ratioP2
21235;SDS011;10775;42.678;26.324;2022-12-29T00:02:11;7.65;;;3.63;;
21235;SDS011;10775;42.678;26.324;2022-12-29T00:04:37;5.80;;;3.10;;
21235;SDS011;10775;42.678;26.324;2022-12-29T00:07:03;4.93;;;3.17;;
21235;SDS011;10775;42.678;26.324;2022-12-29T00:09:29;11.13;;;4.45;;
21235;SDS011;10775;42.678;26.324;2022-12-29T00:11:56;8.50;;;4.10;;
21235;SDS011;10775;42.678;26.324;2022-12-29T00:14:22;6.93;;;3.58;;
21235;SDS011;10775;42.678;26.324;2022-12-29T00:17:06;6.85;;;4.00;;
21235;SDS011;10775;42.678;26.324;2022-12-29T00:19:32;6.30;;;3.92;;
21235;SDS011;10775;42.678;26.324;2022-12-29T00:22:16;6.40;;;3.78;;
21235;SDS011;10775;42.678;26.324;2022-12-29T00:25:00;7.53;;;3.83;;
21235;SDS011;10775;42.678;26.324;2022-12-29T00:27:27;7.53;;;3.83;;
21235;SDS011;10775;42.678;26.324;2022-12-29T00:30:15;5.20;;;3.35;;
21235;SDS011;10775;42.678;26.324;2022-12-29T00:33:14;5.57;;;3.57;;
21235;SDS011;10775;42.678;26.324;2022-12-29T00:36:04;5.68;;;3.13;;
21235;SDS011;10775;42.678;26.324;2022-12-29T00:38:35;6.03;;;3.47;;
21235;SDS011;10775;42.678;26.324;2022-12-29T00:41:23;7.07;;;3.50;;
21235;SDS011;10775;42.678;26.324;2022-12-29T00:44:07;5.43;;;3.40;;
21235;SDS011;10775;42.678;26.324;2022-12-29T00:46:39;5.32;;;3.30;;
21235;SDS011;10775;42.678;26.324;2022-12-29T00:49:06;5.38;;;3.50;;
21235;SDS011;10775;42.678;26.324;2022-12-29T00:51:52;6.03;;;3.10;;
21235;SDS011;10775;42.678;26.324;2022-12-29T00:54:19;5.88;;;3.75;;
21235;SDS011;10775;42.678;26.324;2022-12-29T00:56:49;7.75;;;3.90;;
21235;SDS011;10775;42.678;26.324;2022-12-29T00:59:15;6.60;;;3.45;;
21235;SDS011;10775;42.678;26.324;2022-12-29T01:01:41;6.75;;;3.85;;
21235;SDS011;10775;42.678;26.324;2022-12-29T01:04:07;7.40;;;3.70;;
21235;SDS011;10775;42.678;26.324;2022-12-29T01:06:35;7.07;;;3.72;;
21235;SDS011;10775;42.678;26.324;2022-12-29T01:09:02;6.07;;;3.65;;
21235;SDS011;10775;42.678;26.324;2022-12-29T01:11:48;6.60;;;3.33;;
21235;SDS011;10775;42.678;26.324;2022-12-29T01:14:14;6.40;;;3.38;;
21235;SDS011;10775;42.678;26.324;2022-12-29T01:16:40;6.60;;;3.67;;
21235;SDS011;10775;42.678;26.324;2022-12-29T01:19:06;6.85;;;3.75;;
21235;SDS011;10775;42.678;26.324;2022-12-29T01:21:32;6.05;;;3.53;;
21235;SDS011;10775;42.678;26.324;2022-12-29T01:23:57;5.93;;;3.72;;
21235;SDS011;10775;42.678;26.324;2022-12-29T01:26:23;7.90;;;3.22;;
21235;SDS011;10775;42.678;26.324;2022-12-29T01:28:49;5.13;;;3.10;;
21235;SDS011;10775;42.678;26.324;2022-12-29T01:31:15;4.82;;;2.75;;
21235;SDS011;10775;42.678;26.324;2022-12-29T01:33:41;6.03;;;2.95;;
21235;SDS011;10775;42.678;26.324;2022-12-29T01:36:09;5.00;;;2.90;;
21235;SDS011;10775;42.678;26.324;2022-12-29T01:38:36;5.80;;;3.20;;
21235;SDS011;10775;42.678;26.324;2022-12-29T01:41:03;5.85;;;2.67;;
21235;SDS011;10775;42.678;26.324;2022-12-29T01:43:43;4.70;;;2.70;;
21235;SDS011;10775;42.678;26.324;2022-12-29T01:46:15;4.90;;;2.80;;
21235;SDS011;10775;42.678;26.324;2022-12-29T01:48:49;6.07;;;2.90;;
21235;SDS011;10775;42.678;26.324;2022-12-29T01:51:18;5.75;;;2.85;;
21235;SDS011;10775;42.678;26.324;2022-12-29T01:53:46;4.63;;;2.60;;
21235;SDS011;10775;42.678;26.324;2022-12-29T01:56:12;4.05;;;2.38;;
21235;SDS011;10775;42.678;26.324;2022-12-29T01:58:43;4.25;;;2.78;;
21235;SDS011;10775;42.678;26.324;2022-12-29T02:01:12;3.43;;;2.27;;
21235;SDS011;10775;42.678;26.324;2022-12-29T02:03:39;4.70;;;2.47;;
21235;SDS011;10775;42.678;26.324;2022-12-29T02:08:46;4.28;;;2.15;;
21235;SDS011;10775;42.678;26.324;2022-12-29T02:11:12;4.18;;;2.50;;
21235;SDS011;10775;42.678;26.324;2022-12-29T02:13:38;5.03;;;2.38;;
21235;SDS011;10775;42.678;26.324;2022-12-29T02:23:38;6.80;;;3.00;;
21235;SDS011;10775;42.678;26.324;2022-12-29T02:26:44;5.25;;;2.55;;
21235;SDS011;10775;42.678;26.324;2022-12-29T02:37:51;4.20;;;2.38;;
21235;SDS011;10775;42.678;26.324;2022-12-29T02:49:17;4.15;;;2.20;;
21235;SDS011;10775;42.678;26.324;2022-12-29T02:52:16;3.60;;;2.20;;
21235;SDS011;10775;42.678;26.324;2022-12-29T02:54:48;3.43;;;2.23;;
21235;SDS011;10775;42.678;26.324;2022-12-29T02:57:26;6.28;;;2.38;;
21235;SDS011;10775;42.678;26.324;2022-12-29T03:00:02;5.80;;;2.78;;
21235;SDS011;10775;42.678;26.324;2022-12-29T03:02:46;2.85;;;2.10;;
21235;SDS011;10775;42.678;26.324;2022-12-29T03:05:33;2.92;;;1.70;;
21235;SDS011;10775;42.678;26.324;2022-12-29T03:10:37;6.75;;;2.58;;
21235;SDS011;10775;42.678;26.324;2022-12-29T03:13:13;4.28;;;1.83;;
21235;SDS011;10775;42.678;26.324;2022-12-29T03:18:51;4.43;;;2.45;;
21235;SDS011;10775;42.678;26.324;2022-12-29T03:21:42;3.75;;;2.22;;
21235;SDS011;10775;42.678;26.324;2022-12-29T03:24:43;3.65;;;2.20;;
21235;SDS011;10775;42.678;26.324;2022-12-29T03:27:14;4.30;;;2.28;;
21235;SDS011;10775;42.678;26.324;2022-12-29T03:29:48;3.45;;;2.28;;
21235;SDS011;10775;42.678;26.324;2022-12-29T03:32:26;3.80;;;2.17;;
21235;SDS011;10775;42.678;26.324;2022-12-29T03:34:59;4.03;;;2.20;;
21235;SDS011;10775;42.678;26.324;2022-12-29T03:37:28;4.72;;;2.33;;
21235;SDS011;10775;42.678;26.324;2022-12-29T03:39:59;5.05;;;2.28;;
21235;SDS011;10775;42.678;26.324;2022-12-29T03:42:25;3.38;;;2.28;;
21235;SDS011;10775;42.678;26.324;2022-12-29T03:44:55;3.72;;;2.42;;
21235;SDS011;10775;42.678;26.324;2022-12-29T03:47:22;4.45;;;2.42;;
21235;SDS011;10775;42.678;26.324;2022-12-29T03:49:48;5.03;;;2.80;;
21235;SDS011;10775;42.678;26.324;2022-12-29T03:52:14;4.38;;;2.38;;
21235;SDS011;10775;42.678;26.324;2022-12-29T03:54:40;4.35;;;2.40;;
21235;SDS011;10775;42.678;26.324;2022-12-29T03:57:05;5.60;;;2.13;;
21235;SDS011;10775;42.678;26.324;2022-12-29T03:59:31;4.18;;;2.42;;
21235;SDS011;10775;42.678;26.324;2022-12-29T04:01:56;5.90;;;2.50;;
21235;SDS011;10775;42.678;26.324;2022-12-29T04:04:22;5.28;;;2.30;;
21235;SDS011;10775;42.678;26.324;2022-12-29T04:06:48;4.35;;;2.47;;
21235;SDS011;10775;42.678;26.324;2022-12-29T04:09:13;4.40;;;2.13;;
21235;SDS011;10775;42.678;26.324;2022-12-29T04:11:39;3.70;;;2.20;;
21235;SDS011;10775;42.678;26.324;2022-12-29T04:14:04;4.00;;;2.22;;
21235;SDS011;10775;42.678;26.324;2022-12-29T04:16:30;3.63;;;2.05;;
21235;SDS011;10775;42.678;26.324;2022-12-29T04:18:55;2.85;;;2.03;;
21235;SDS011;10775;42.678;26.324;2022-12-29T04:21:21;2.80;;;1.90;;
21235;SDS011;10775;42.678;26.324;2022-12-29T04:23:47;3.35;;;2.17;;
21235;SDS011;10775;42.678;26.324;2022-12-29T04:26:12;3.30;;;2.00;;
21235;SDS011;10775;42.678;26.324;2022-12-29T04:28:38;4.18;;;2.00;;
21235;SDS011;10775;42.678;26.324;2022-12-29T04:31:04;4.85;;;2.28;;
21235;SDS011;10775;42.678;26.324;2022-12-29T04:33:30;3.40;;;2.17;;
21235;SDS011;10775;42.678;26.324;2022-12-29T04:35:56;5.65;;;2.63;;
21235;SDS011;10775;42.678;26.324;2022-12-29T04:38:22;4.43;;;2.22;;
21235;SDS011;10775;42.678;26.324;2022-12-29T04:40:49;7.50;;;2.80;;
21235;SDS011;10775;42.678;26.324;2022-12-29T04:43:15;4.70;;;2.95;;
21235;SDS011;10775;42.678;26.324;2022-12-29T04:45:45;5.13;;;2.83;;
21235;SDS011;10775;42.678;26.324;2022-12-29T04:48:11;3.10;;;1.98;;
21235;SDS011;10775;42.678;26.324;2022-12-29T04:50:38;3.92;;;2.28;;
21235;SDS011;10775;42.678;26.324;2022-12-29T04:53:04;4.18;;;2.45;;
21235;SDS011;10775;42.678;26.324;2022-12-29T04:55:30;3.70;;;2.47;;
21235;SDS011;10775;42.678;26.324;2022-12-29T04:57:55;7.00;;;2.45;;
21235;SDS011;10775;42.678;26.324;2022-12-29T05:00:21;4.07;;;2.17;;
21235;SDS011;10775;42.678;26.324;2022-12-29T05:02:47;5.00;;;2.42;;
21235;SDS011;10775;42.678;26.324;2022-12-29T05:05:12;3.25;;;2.47;;
21235;SDS011;10775;42.678;26.324;2022-12-29T05:07:38;4.00;;;2.55;;
21235;SDS011;10775;42.678;26.324;2022-12-29T05:10:04;6.10;;;2.92;;
21235;SDS011;10775;42.678;26.324;2022-12-29T05:12:31;4.63;;;2.63;;
21235;SDS011;10775;42.678;26.324;2022-12-29T05:14:58;3.85;;;2.42;;
21235;SDS011;10775;42.678;26.324;2022-12-29T05:17:23;4.97;;;2.53;;
21235;SDS011;10775;42.678;26.324;2022-12-29T05:19:49;4.68;;;2.53;;
21235;SDS011;10775;42.678;26.324;2022-12-29T05:22:15;4.00;;;2.28;;
21235;SDS011;10775;42.678;26.324;2022-12-29T05:24:41;3.55;;;1.90;;
21235;SDS011;10775;42.678;26.324;2022-12-29T05:27:06;5.57;;;2.85;;
21235;SDS011;10775;42.678;26.324;2022-12-29T05:29:32;3.72;;;2.63;;
21235;SDS011;10775;42.678;26.324;2022-12-29T05:31:58;4.05;;;2.33;;
21235;SDS011;10775;42.678;26.324;2022-12-29T05:34:23;5.80;;;2.47;;
21235;SDS011;10775;42.678;26.324;2022-12-29T05:36:49;5.28;;;2.55;;
21235;SDS011;10775;42.678;26.324;2022-12-29T05:39:15;4.50;;;2.65;;
21235;SDS011;10775;42.678;26.324;2022-12-29T05:41:40;4.18;;;2.80;;
21235;SDS011;10775;42.678;26.324;2022-12-29T05:44:06;3.75;;;2.67;;
21235;SDS011;10775;42.678;26.324;2022-12-29T05:46:31;4.78;;;2.55;;
21235;SDS011;10775;42.678;26.324;2022-12-29T05:48:57;5.45;;;2.58;;
21235;SDS011;10775;42.678;26.324;2022-12-29T05:51:23;6.32;;;3.25;;
21235;SDS011;10775;42.678;26.324;2022-12-29T05:53:48;10.52;;;4.43;;
21235;SDS011;10775;42.678;26.324;2022-12-29T05:56:14;9.90;;;4.18;;
21235;SDS011;10775;42.678;26.324;2022-12-29T05:58:39;14.93;;;5.80;;
21235;SDS011;10775;42.678;26.324;2022-12-29T06:01:05;16.70;;;6.22;;
21235;SDS011;10775;42.678;26.324;2022-12-29T06:03:30;13.05;;;5.47;;
21235;SDS011;10775;42.678;26.324;2022-12-29T06:05:56;7.47;;;3.42;;
21235;SDS011;10775;42.678;26.324;2022-12-29T06:08:22;6.80;;;3.55;;
21235;SDS011;10775;42.678;26.324;2022-12-29T06:10:47;6.82;;;3.58;;
21235;SDS011;10775;42.678;26.324;2022-12-29T06:13:13;7.32;;;3.85;;
21235;SDS011;10775;42.678;26.324;2022-12-29T06:15:38;5.50;;;3.90;;
21235;SDS011;10775;42.678;26.324;2022-12-29T06:18:04;10.20;;;4.90;;
21235;SDS011;10775;42.678;26.324;2022-12-29T06:20:30;12.95;;;6.28;;
21235;SDS011;10775;42.678;26.324;2022-12-29T06:22:55;9.95;;;5.55;;
21235;SDS011;10775;42.678;26.324;2022-12-29T06:25:21;10.15;;;6.43;;
21235;SDS011;10775;42.678;26.324;2022-12-29T06:27:46;15.98;;;8.25;;
21235;SDS011;10775;42.678;26.324;2022-12-29T06:30:12;7.50;;;4.03;;
21235;SDS011;10775;42.678;26.324;2022-12-29T06:32:38;19.60;;;10.15;;
21235;SDS011;10775;42.678;26.324;2022-12-29T06:35:04;7.13;;;4.10;;
21235;SDS011;10775;42.678;26.324;2022-12-29T06:37:31;12.43;;;6.97;;
21235;SDS011;10775;42.678;26.324;2022-12-29T06:39:57;8.05;;;5.38;;
21235;SDS011;10775;42.678;26.324;2022-12-29T06:42:23;8.50;;;4.60;;
21235;SDS011;10775;42.678;26.324;2022-12-29T06:44:48;7.13;;;3.95;;
21235;SDS011;10775;42.678;26.324;2022-12-29T06:47:14;5.63;;;3.20;;
21235;SDS011;10775;42.678;26.324;2022-12-29T06:49:40;7.80;;;4.10;;
21235;SDS011;10775;42.678;26.324;2022-12-29T06:52:06;6.00;;;3.53;;
21235;SDS011;10775;42.678;26.324;2022-12-29T06:54:32;8.27;;;3.92;;
21235;SDS011;10775;42.678;26.324;2022-12-29T06:56:58;8.88;;;4.85;;
21235;SDS011;10775;42.678;26.324;2022-12-29T06:59:26;8.35;;;4.90;;
21235;SDS011;10775;42.678;26.324;2022-12-29T07:01:52;8.95;;;4.50;;
21235;SDS011;10775;42.678;26.324;2022-12-29T07:04:17;8.40;;;3.85;;
21235;SDS011;10775;42.678;26.324;2022-12-29T07:06:43;7.60;;;4.22;;
21235;SDS011;10775;42.678;26.324;2022-12-29T07:09:09;14.25;;;6.85;;
21235;SDS011;10775;42.678;26.324;2022-12-29T07:11:38;7.05;;;4.68;;
21235;SDS011;10775;42.678;26.324;2022-12-29T07:14:03;6.45;;;3.83;;
21235;SDS011;10775;42.678;26.324;2022-12-29T07:16:29;6.20;;;3.90;;
21235;SDS011;10775;42.678;26.324;2022-12-29T07:18:55;7.57;;;3.92;;
21235;SDS011;10775;42.678;26.324;2022-12-29T07:21:22;5.68;;;3.83;;
21235;SDS011;10775;42.678;26.324;2022-12-29T07:23:47;8.27;;;3.95;;
21235;SDS011;10775;42.678;26.324;2022-12-29T07:26:14;6.60;;;3.80;;
21235;SDS011;10775;42.678;26.324;2022-12-29T07:28:42;7.43;;;4.20;;
21235;SDS011;10775;42.678;26.324;2022-12-29T07:31:18;8.15;;;3.45;;
21235;SDS011;10775;42.678;26.324;2022-12-29T07:33:46;8.25;;;4.85;;
21235;SDS011;10775;42.678;26.324;2022-12-29T07:36:12;8.35;;;4.28;;
21235;SDS011;10775;42.678;26.324;2022-12-29T07:38:40;7.28;;;3.85;;
21235;SDS011;10775;42.678;26.324;2022-12-29T07:41:06;7.60;;;4.97;;
21235;SDS011;10775;42.678;26.324;2022-12-29T07:43:32;8.15;;;3.95;;
21235;SDS011;10775;42.678;26.324;2022-12-29T07:45:58;8.02;;;4.25;;
21235;SDS011;10775;42.678;26.324;2022-12-29T07:48:23;6.05;;;4.05;;
21235;SDS011;10775;42.678;26.324;2022-12-29T07:50:49;5.53;;;4.00;;
21235;SDS011;10775;42.678;26.324;2022-12-29T07:53:15;6.72;;;3.70;;
21235;SDS011;10775;42.678;26.324;2022-12-29T07:55:41;5.40;;;3.22;;
21235;SDS011;10775;42.678;26.324;2022-12-29T07:58:10;5.25;;;3.35;;
21235;SDS011;10775;42.678;26.324;2022-12-29T08:00:36;7.75;;;4.15;;
21235;SDS011;10775;42.678;26.324;2022-12-29T08:03:03;6.85;;;4.22;;
21235;SDS011;10775;42.678;26.324;2022-12-29T08:05:30;8.60;;;3.92;;
21235;SDS011;10775;42.678;26.324;2022-12-29T08:07:56;6.25;;;4.10;;
21235;SDS011;10775;42.678;26.324;2022-12-29T08:10:22;7.20;;;4.32;;
21235;SDS011;10775;42.678;26.324;2022-12-29T08:12:48;8.45;;;4.50;;
21235;SDS011;10775;42.678;26.324;2022-12-29T08:15:14;6.57;;;4.50;;
21235;SDS011;10775;42.678;26.324;2022-12-29T08:17:40;7.03;;;4.90;;
21235;SDS011;10775;42.678;26.324;2022-12-29T08:20:05;9.05;;;5.35;;
21235;SDS011;10775;42.678;26.324;2022-12-29T08:22:32;7.72;;;5.18;;
21235;SDS011;10775;42.678;26.324;2022-12-29T08:24:57;8.70;;;4.90;;
21235;SDS011;10775;42.678;26.324;2022-12-29T08:27:23;6.35;;;4.68;;
21235;SDS011;10775;42.678;26.324;2022-12-29T08:29:49;7.07;;;4.55;;
21235;SDS011;10775;42.678;26.324;2022-12-29T08:32:14;8.25;;;5.63;;
21235;SDS011;10775;42.678;26.324;2022-12-29T08:34:40;9.07;;;5.60;;
21235;SDS011;10775;42.678;26.324;2022-12-29T08:37:06;8.85;;;5.97;;
21235;SDS011;10775;42.678;26.324;2022-12-29T08:39:31;8.65;;;4.97;;
21235;SDS011;10775;42.678;26.324;2022-12-29T08:41:57;9.13;;;5.40;;
21235;SDS011;10775;42.678;26.324;2022-12-29T08:44:23;7.38;;;5.32;;
21235;SDS011;10775;42.678;26.324;2022-12-29T08:46:49;7.70;;;5.13;;
21235;SDS011;10775;42.678;26.324;2022-12-29T08:49:15;9.75;;;5.55;;
21235;SDS011;10775;42.678;26.324;2022-12-29T08:51:40;7.53;;;4.97;;
21235;SDS011;10775;42.678;26.324;2022-12-29T08:54:06;6.30;;;4.43;;
21235;SDS011;10775;42.678;26.324;2022-12-29T08:56:32;7.13;;;5.43;;
21235;SDS011;10775;42.678;26.324;2022-12-29T08:58:57;9.18;;;4.53;;
21235;SDS011;10775;42.678;26.324;2022-12-29T09:01:25;8.88;;;5.07;;
21235;SDS011;10775;42.678;26.324;2022-12-29T09:03:52;6.88;;;4.18;;
21235;SDS011;10775;42.678;26.324;2022-12-29T09:06:18;9.48;;;4.57;;
21235;SDS011;10775;42.678;26.324;2022-12-29T09:08:44;6.95;;;4.50;;
21235;SDS011;10775;42.678;26.324;2022-12-29T09:11:20;9.45;;;4.70;;
21235;SDS011;10775;42.678;26.324;2022-12-29T09:13:47;6.93;;;4.72;;
21235;SDS011;10775;42.678;26.324;2022-12-29T09:16:14;7.72;;;5.13;;
21235;SDS011;10775;42.678;26.324;2022-12-29T09:18:40;8.25;;;5.60;;
21235;SDS011;10775;42.678;26.324;2022-12-29T09:21:07;7.95;;;5.00;;
21235;SDS011;10775;42.678;26.324;2022-12-29T09:23:34;7.55;;;4.90;;
21235;SDS011;10775;42.678;26.324;2022-12-29T09:26:00;7.43;;;5.20;;
21235;SDS011;10775;42.678;26.324;2022-12-29T09:28:26;7.32;;;4.63;;
21235;SDS011;10775;42.678;26.324;2022-12-29T09:30:54;11.63;;;4.85;;
21235;SDS011;10775;42.678;26.324;2022-12-29T09:33:20;8.43;;;4.70;;
21235;SDS011;10775;42.678;26.324;2022-12-29T09:35:50;8.15;;;5.22;;
21235;SDS011;10775;42.678;26.324;2022-12-29T09:38:17;8.98;;;5.85;;
21235;SDS011;10775;42.678;26.324;2022-12-29T09:41:06;7.35;;;4.05;;
21235;SDS011;10775;42.678;26.324;2022-12-29T09:43:57;6.78;;;4.63;;
21235;SDS011;10775;42.678;26.324;2022-12-29T09:51:55;12.23;;;4.85;;
21235;SDS011;10775;42.678;26.324;2022-12-29T09:57:04;6.07;;;4.57;;
21235;SDS011;10775;42.678;26.324;2022-12-29T09:59:39;7.00;;;4.85;;
21235;SDS011;10775;42.678;26.324;2022-12-29T10:04:51;10.30;;;4.32;;
21235;SDS011;10775;42.678;26.324;2022-12-29T10:07:23;9.35;;;5.05;;
21235;SDS011;10775;42.678;26.324;2022-12-29T10:10:09;7.85;;;5.13;;
21235;SDS011;10775;42.678;26.324;2022-12-29T10:15:40;6.70;;;4.60;;
21235;SDS011;10775;42.678;26.324;2022-12-29T10:18:48;5.95;;;4.35;;
21235;SDS011;10775;42.678;26.324;2022-12-29T10:24:39;6.88;;;4.80;;
21235;SDS011;10775;42.678;26.324;2022-12-29T10:27:09;9.98;;;4.68;;
21235;SDS011;10775;42.678;26.324;2022-12-29T10:29:39;9.73;;;5.03;;
21235;SDS011;10775;42.678;26.324;2022-12-29T10:32:26;8.18;;;5.10;;
21235;SDS011;10775;42.678;26.324;2022-12-29T10:34:54;13.43;;;6.97;;
21235;SDS011;10775;42.678;26.324;2022-12-29T10:43:45;6.70;;;4.32;;
21235;SDS011;10775;42.678;26.324;2022-12-29T10:46:20;8.02;;;5.30;;
21235;SDS011;10775;42.678;26.324;2022-12-29T10:48:50;6.93;;;4.30;;
21235;SDS011;10775;42.678;26.324;2022-12-29T10:51:20;7.57;;;4.65;;
21235;SDS011;10775;42.678;26.324;2022-12-29T10:53:57;10.27;;;6.30;;
21235;SDS011;10775;42.678;26.324;2022-12-29T10:56:36;12.18;;;6.53;;
21235;SDS011;10775;42.678;26.324;2022-12-29T10:59:51;9.02;;;5.53;;
21235;SDS011;10775;42.678;26.324;2022-12-29T11:04:35;11.32;;;6.70;;
21235;SDS011;10775;42.678;26.324;2022-12-29T11:07:11;12.05;;;6.25;;
21235;SDS011;10775;42.678;26.324;2022-12-29T11:09:38;9.65;;;6.15;;
21235;SDS011;10775;42.678;26.324;2022-12-29T11:12:27;10.23;;;6.10;;
21235;SDS011;10775;42.678;26.324;2022-12-29T11:17:53;10.45;;;5.43;;
21235;SDS011;10775;42.678;26.324;2022-12-29T11:20:38;9.85;;;5.57;;
21235;SDS011;10775;42.678;26.324;2022-12-29T11:23:05;7.63;;;4.40;;
21235;SDS011;10775;42.678;26.324;2022-12-29T11:28:38;8.55;;;4.95;;
21235;SDS011;10775;42.678;26.324;2022-12-29T11:31:05;8.43;;;5.25;;
21235;SDS011;10775;42.678;26.324;2022-12-29T11:33:33;11.38;;;5.53;;
21235;SDS011;10775;42.678;26.324;2022-12-29T11:36:04;8.20;;;5.13;;
21235;SDS011;10775;42.678;26.324;2022-12-29T11:38:37;8.35;;;5.70;;
21235;SDS011;10775;42.678;26.324;2022-12-29T11:41:06;8.40;;;5.18;;
21235;SDS011;10775;42.678;26.324;2022-12-29T11:43:38;8.45;;;6.20;;
21235;SDS011;10775;42.678;26.324;2022-12-29T11:48:39;13.45;;;8.98;;
21235;SDS011;10775;42.678;26.324;2022-12-29T11:51:06;8.00;;;4.63;;
21235;SDS011;10775;42.678;26.324;2022-12-29T11:53:43;7.82;;;5.32;;
21235;SDS011;10775;42.678;26.324;2022-12-29T11:56:20;8.38;;;5.20;;
21235;SDS011;10775;42.678;26.324;2022-12-29T11:58:55;8.48;;;4.78;;
21235;SDS011;10775;42.678;26.324;2022-12-29T12:01:30;7.35;;;4.75;;
21235;SDS011;10775;42.678;26.324;2022-12-29T12:06:29;8.52;;;5.25;;
21235;SDS011;10775;42.678;26.324;2022-12-29T12:09:16;9.55;;;5.25;;
21235;SDS011;10775;42.678;26.324;2022-12-29T12:11:48;9.15;;;5.05;;
21235;SDS011;10775;42.678;26.324;2022-12-29T12:14:23;7.15;;;5.10;;
21235;SDS011;10775;42.678;26.324;2022-12-29T12:19:23;9.32;;;5.35;;
21235;SDS011;10775;42.678;26.324;2022-12-29T12:21:56;6.70;;;5.15;;
21235;SDS011;10775;42.678;26.324;2022-12-29T12:24:31;10.13;;;4.60;;
21235;SDS011;10775;42.678;26.324;2022-12-29T12:27:13;9.45;;;5.72;;
21235;SDS011;10775;42.678;26.324;2022-12-29T12:29:48;8.85;;;5.22;;
21235;SDS011;10775;42.678;26.324;2022-12-29T12:32:22;6.47;;;4.90;;
21235;SDS011;10775;42.678;26.324;2022-12-29T12:34:54;8.73;;;4.68;;
21235;SDS011;10775;42.678;26.324;2022-12-29T12:37:42;8.38;;;4.72;;
21235;SDS011;10775;42.678;26.324;2022-12-29T12:40:27;11.93;;;6.57;;
21235;SDS011;10775;42.678;26.324;2022-12-29T12:46:17;11.32;;;5.25;;
21235;SDS011;10775;42.678;26.324;2022-12-29T12:49:15;10.85;;;5.50;;
21235;SDS011;10775;42.678;26.324;2022-12-29T13:00:21;8.40;;;5.07;;
21235;SDS011;10775;42.678;26.324;2022-12-29T13:06:02;11.98;;;5.60;;
21235;SDS011;10775;42.678;26.324;2022-12-29T13:09:10;10.63;;;5.50;;
21235;SDS011;10775;42.678;26.324;2022-12-29T13:17:26;11.13;;;6.60;;
21235;SDS011;10775;42.678;26.324;2022-12-29T13:36:29;9.85;;;5.85;;
21235;SDS011;10775;42.678;26.324;2022-12-29T13:39:08;8.38;;;5.05;;
21235;SDS011;10775;42.678;26.324;2022-12-29T13:41:52;9.73;;;5.72;;
21235;SDS011;10775;42.678;26.324;2022-12-29T13:44:23;9.15;;;5.40;;
21235;SDS011;10775;42.678;26.324;2022-12-29T13:46:55;13.20;;;6.63;;
21235;SDS011;10775;42.678;26.324;2022-12-29T13:49:24;7.97;;;5.47;;
21235;SDS011;10775;42.678;26.324;2022-12-29T13:51:58;18.58;;;12.73;;
21235;SDS011;10775;42.678;26.324;2022-12-29T13:57:37;8.05;;;5.25;;
21235;SDS011;10775;42.678;26.324;2022-12-29T14:00:12;8.75;;;5.07;;
21235;SDS011;10775;42.678;26.324;2022-12-29T14:07:48;8.88;;;5.50;;
21235;SDS011;10775;42.678;26.324;2022-12-29T14:10:27;9.10;;;5.15;;
21235;SDS011;10775;42.678;26.324;2022-12-29T14:15:42;9.38;;;6.30;;
21235;SDS011;10775;42.678;26.324;2022-12-29T14:18:14;12.25;;;6.45;;
21235;SDS011;10775;42.678;26.324;2022-12-29T14:20:55;7.93;;;5.50;;
21235;SDS011;10775;42.678;26.324;2022-12-29T14:28:33;9.90;;;6.40;;
21235;SDS011;10775;42.678;26.324;2022-12-29T14:33:40;8.10;;;5.63;;
21235;SDS011;10775;42.678;26.324;2022-12-29T14:36:32;11.43;;;6.57;;
21235;SDS011;10775;42.678;26.324;2022-12-29T14:39:00;11.07;;;6.43;;
21235;SDS011;10775;42.678;26.324;2022-12-29T14:41:27;10.73;;;5.95;;
21235;SDS011;10775;42.678;26.324;2022-12-29T14:49:32;8.17;;;5.50;;
21235;SDS011;10775;42.678;26.324;2022-12-29T14:52:19;7.78;;;5.55;;
21235;SDS011;10775;42.678;26.324;2022-12-29T14:54:58;11.23;;;6.28;;
21235;SDS011;10775;42.678;26.324;2022-12-29T14:57:44;10.20;;;6.85;;
21235;SDS011;10775;42.678;26.324;2022-12-29T15:00:16;13.70;;;7.70;;
21235;SDS011;10775;42.678;26.324;2022-12-29T15:03:06;15.20;;;8.13;;
21235;SDS011;10775;42.678;26.324;2022-12-29T15:05:54;15.48;;;9.45;;
21235;SDS011;10775;42.678;26.324;2022-12-29T15:08:23;16.60;;;8.88;;
21235;SDS011;10775;42.678;26.324;2022-12-29T15:11:14;16.27;;;9.68;;
21235;SDS011;10775;42.678;26.324;2022-12-29T15:13:43;16.20;;;9.95;;
21235;SDS011;10775;42.678;26.324;2022-12-29T15:16:23;16.52;;;9.00;;
21235;SDS011;10775;42.678;26.324;2022-12-29T15:18:52;16.58;;;10.65;;
21235;SDS011;10775;42.678;26.324;2022-12-29T15:21:20;17.10;;;10.40;;
21235;SDS011;10775;42.678;26.324;2022-12-29T15:24:09;15.02;;;10.32;;
21235;SDS011;10775;42.678;26.324;2022-12-29T15:26:36;17.50;;;9.90;;
21235;SDS011;10775;42.678;26.324;2022-12-29T15:29:04;17.58;;;10.10;;
21235;SDS011;10775;42.678;26.324;2022-12-29T15:31:30;12.93;;;9.57;;
21235;SDS011;10775;42.678;26.324;2022-12-29T15:34:07;16.45;;;9.93;;
21235;SDS011;10775;42.678;26.324;2022-12-29T15:36:37;18.50;;;11.05;;
21235;SDS011;10775;42.678;26.324;2022-12-29T15:42:35;16.98;;;9.95;;
21235;SDS011;10775;42.678;26.324;2022-12-29T15:44:52;13.02;;;9.48;;
21235;SDS011;10775;42.678;26.324;2022-12-29T15:47:18;13.63;;;8.55;;
21235;SDS011;10775;42.678;26.324;2022-12-29T15:49:53;14.02;;;9.35;;
21235;SDS011;10775;42.678;26.324;2022-12-29T15:52:31;18.17;;;9.95;;
21235;SDS011;10775;42.678;26.324;2022-12-29T15:54:58;18.30;;;11.35;;
21235;SDS011;10775;42.678;26.324;2022-12-29T15:57:29;17.75;;;11.35;;
21235;SDS011;10775;42.678;26.324;2022-12-29T16:00:01;35.08;;;19.75;;
21235;SDS011;10775;42.678;26.324;2022-12-29T16:02:28;19.35;;;11.90;;
21235;SDS011;10775;42.678;26.324;2022-12-29T16:04:55;21.00;;;13.02;;
21235;SDS011;10775;42.678;26.324;2022-12-29T16:07:25;22.08;;;13.93;;
21235;SDS011;10775;42.678;26.324;2022-12-29T16:09:54;18.00;;;10.80;;
21235;SDS011;10775;42.678;26.324;2022-12-29T16:12:26;20.08;;;11.00;;
21235;SDS011;10775;42.678;26.324;2022-12-29T16:15:15;15.02;;;10.05;;
21235;SDS011;10775;42.678;26.324;2022-12-29T16:17:46;14.93;;;10.20;;
21235;SDS011;10775;42.678;26.324;2022-12-29T16:20:17;16.27;;;8.77;;
21235;SDS011;10775;42.678;26.324;2022-12-29T16:22:48;19.17;;;10.07;;
21235;SDS011;10775;42.678;26.324;2022-12-29T16:25:25;17.98;;;10.93;;
21235;SDS011;10775;42.678;26.324;2022-12-29T16:27:56;16.83;;;10.05;;
21235;SDS011;10775;42.678;26.324;2022-12-29T16:30:24;17.60;;;10.88;;
21235;SDS011;10775;42.678;26.324;2022-12-29T16:32:53;20.63;;;13.32;;
21235;SDS011;10775;42.678;26.324;2022-12-29T16:35:28;17.25;;;10.75;;
21235;SDS011;10775;42.678;26.324;2022-12-29T16:38:10;16.50;;;10.25;;
21235;SDS011;10775;42.678;26.324;2022-12-29T16:40:54;17.55;;;10.45;;
21235;SDS011;10775;42.678;26.324;2022-12-29T16:43:25;17.42;;;10.93;;
21235;SDS011;10775;42.678;26.324;2022-12-29T16:48:19;17.80;;;11.55;;
21235;SDS011;10775;42.678;26.324;2022-12-29T16:50:48;43.30;;;24.77;;
21235;SDS011;10775;42.678;26.324;2022-12-29T16:53:19;21.65;;;13.35;;
21235;SDS011;10775;42.678;26.324;2022-12-29T16:55:49;21.25;;;14.07;;
21235;SDS011;10775;42.678;26.324;2022-12-29T16:58:24;22.58;;;12.02;;
21235;SDS011;10775;42.678;26.324;2022-12-29T17:00:57;18.23;;;11.60;;
21235;SDS011;10775;42.678;26.324;2022-12-29T17:03:27;17.63;;;11.65;;
21235;SDS011;10775;42.678;26.324;2022-12-29T17:06:00;18.77;;;11.90;;
21235;SDS011;10775;42.678;26.324;2022-12-29T17:08:26;25.50;;;16.13;;
21235;SDS011;10775;42.678;26.324;2022-12-29T17:10:52;17.33;;;11.35;;
21235;SDS011;10775;42.678;26.324;2022-12-29T17:13:39;15.77;;;10.40;;